sensor_id;sensor_type;location;lat;lon;timestamp;P1;durP1;ratioP1;P2;durP2;ratioP2
27039;SDS011;14589;51.578;7.306;2022-12-08T00:04:17;23.50;;;12.40;;
27039;SDS011;14589;51.578;7.306;2022-12-08T00:06:55;17.27;;;9.87;;
27039;SDS011;14589;51.578;7.306;2022-12-08T00:09:58;23.92;;;13.05;;
27039;SDS011;14589;51.578;7.306;2022-12-08T00:14:49;27.58;;;14.00;;
27039;SDS011;14589;51.578;7.306;2022-12-08T00:17:40;28.05;;;14.18;;
27039;SDS011;14589;51.578;7.306;2022-12-08T00:20:05;37.33;;;17.20;;
27039;SDS011;14589;51.578;7.306;2022-12-08T00:22:39;38.10;;;16.50;;
27039;SDS011;14589;51.578;7.306;2022-12-08T00:25:07;32.83;;;16.70;;
27039;SDS011;14589;51.578;7.306;2022-12-08T00:27:44;37.67;;;18.30;;
27039;SDS011;14589;51.578;7.306;2022-12-08T00:30:31;31.77;;;17.92;;
27039;SDS011;14589;51.578;7.306;2022-12-08T00:32:56;35.45;;;17.88;;
27039;SDS011;14589;51.578;7.306;2022-12-08T00:35:22;33.78;;;19.10;;
27039;SDS011;14589;51.578;7.306;2022-12-08T00:37:51;37.75;;;19.42;;
27039;SDS011;14589;51.578;7.306;2022-12-08T00:40:16;37.35;;;20.23;;
27039;SDS011;14589;51.578;7.306;2022-12-08T00:42:42;37.90;;;20.20;;
27039;SDS011;14589;51.578;7.306;2022-12-08T00:45:07;36.75;;;18.67;;
27039;SDS011;14589;51.578;7.306;2022-12-08T00:47:33;41.08;;;19.13;;
27039;SDS011;14589;51.578;7.306;2022-12-08T00:49:59;32.25;;;19.20;;
27039;SDS011;14589;51.578;7.306;2022-12-08T00:52:24;37.45;;;19.35;;
27039;SDS011;14589;51.578;7.306;2022-12-08T00:54:52;39.75;;;20.20;;
27039;SDS011;14589;51.578;7.306;2022-12-08T00:57:18;38.92;;;19.70;;
27039;SDS011;14589;51.578;7.306;2022-12-08T00:59:43;41.58;;;20.65;;
27039;SDS011;14589;51.578;7.306;2022-12-08T01:02:09;45.65;;;20.45;;
27039;SDS011;14589;51.578;7.306;2022-12-08T01:04:34;45.25;;;22.02;;
27039;SDS011;14589;51.578;7.306;2022-12-08T01:07:00;39.38;;;20.85;;
27039;SDS011;14589;51.578;7.306;2022-12-08T01:09:25;36.95;;;21.55;;
27039;SDS011;14589;51.578;7.306;2022-12-08T01:11:58;41.10;;;21.15;;
27039;SDS011;14589;51.578;7.306;2022-12-08T01:14:23;41.72;;;21.85;;
27039;SDS011;14589;51.578;7.306;2022-12-08T01:16:49;44.58;;;20.85;;
27039;SDS011;14589;51.578;7.306;2022-12-08T01:19:15;43.92;;;20.98;;
27039;SDS011;14589;51.578;7.306;2022-12-08T01:21:43;46.33;;;21.83;;
27039;SDS011;14589;51.578;7.306;2022-12-08T01:24:13;38.60;;;21.20;;
27039;SDS011;14589;51.578;7.306;2022-12-08T01:26:40;45.33;;;21.52;;
27039;SDS011;14589;51.578;7.306;2022-12-08T01:29:10;48.63;;;22.52;;
27039;SDS011;14589;51.578;7.306;2022-12-08T01:31:36;40.05;;;20.58;;
27039;SDS011;14589;51.578;7.306;2022-12-08T01:34:03;41.92;;;21.05;;
27039;SDS011;14589;51.578;7.306;2022-12-08T01:36:32;40.28;;;20.65;;
27039;SDS011;14589;51.578;7.306;2022-12-08T01:39:03;42.28;;;20.85;;
27039;SDS011;14589;51.578;7.306;2022-12-08T01:41:33;35.55;;;19.15;;
27039;SDS011;14589;51.578;7.306;2022-12-08T01:51:21;34.03;;;17.05;;
27039;SDS011;14589;51.578;7.306;2022-12-08T01:54:58;31.63;;;16.42;;
27039;SDS011;14589;51.578;7.306;2022-12-08T01:58:35;33.35;;;17.17;;
27039;SDS011;14589;51.578;7.306;2022-12-08T02:01:09;31.63;;;17.42;;
27039;SDS011;14589;51.578;7.306;2022-12-08T02:06:18;39.67;;;17.80;;
27039;SDS011;14589;51.578;7.306;2022-12-08T02:08:44;29.98;;;17.83;;
27039;SDS011;14589;51.578;7.306;2022-12-08T02:11:11;34.70;;;18.30;;
27039;SDS011;14589;51.578;7.306;2022-12-08T02:13:36;36.85;;;19.20;;
27039;SDS011;14589;51.578;7.306;2022-12-08T02:18:41;32.47;;;17.92;;
27039;SDS011;14589;51.578;7.306;2022-12-08T02:24:06;37.55;;;18.40;;
27039;SDS011;14589;51.578;7.306;2022-12-08T02:27:11;36.40;;;18.55;;
27039;SDS011;14589;51.578;7.306;2022-12-08T02:35:13;41.05;;;20.15;;
27039;SDS011;14589;51.578;7.306;2022-12-08T02:37:46;41.05;;;21.05;;
27039;SDS011;14589;51.578;7.306;2022-12-08T02:40:21;39.25;;;21.02;;
27039;SDS011;14589;51.578;7.306;2022-12-08T02:42:55;40.03;;;21.15;;
27039;SDS011;14589;51.578;7.306;2022-12-08T02:45:33;37.85;;;19.77;;
27039;SDS011;14589;51.578;7.306;2022-12-08T02:48:02;42.78;;;20.98;;
27039;SDS011;14589;51.578;7.306;2022-12-08T02:50:29;37.25;;;19.33;;
27039;SDS011;14589;51.578;7.306;2022-12-08T02:52:54;39.03;;;21.27;;
27039;SDS011;14589;51.578;7.306;2022-12-08T03:00:21;46.25;;;22.50;;
27039;SDS011;14589;51.578;7.306;2022-12-08T03:08:32;42.53;;;21.20;;
27039;SDS011;14589;51.578;7.306;2022-12-08T03:11:09;39.85;;;20.40;;
27039;SDS011;14589;51.578;7.306;2022-12-08T03:13:41;50.60;;;23.20;;
27039;SDS011;14589;51.578;7.306;2022-12-08T03:16:10;43.80;;;21.15;;
27039;SDS011;14589;51.578;7.306;2022-12-08T03:18:39;47.08;;;22.20;;
27039;SDS011;14589;51.578;7.306;2022-12-08T03:21:09;41.13;;;20.77;;
27039;SDS011;14589;51.578;7.306;2022-12-08T03:23:35;44.60;;;22.17;;
27039;SDS011;14589;51.578;7.306;2022-12-08T03:26:12;45.00;;;21.45;;
27039;SDS011;14589;51.578;7.306;2022-12-08T03:28:41;51.83;;;24.25;;
27039;SDS011;14589;51.578;7.306;2022-12-08T03:31:08;45.38;;;21.52;;
27039;SDS011;14589;51.578;7.306;2022-12-08T03:33:37;45.92;;;21.80;;
27039;SDS011;14589;51.578;7.306;2022-12-08T03:36:06;48.95;;;22.48;;
27039;SDS011;14589;51.578;7.306;2022-12-08T03:38:45;49.38;;;21.38;;
27039;SDS011;14589;51.578;7.306;2022-12-08T03:41:11;52.53;;;24.27;;
27039;SDS011;14589;51.578;7.306;2022-12-08T03:43:43;43.17;;;21.55;;
27039;SDS011;14589;51.578;7.306;2022-12-08T03:46:12;44.90;;;21.25;;
27039;SDS011;14589;51.578;7.306;2022-12-08T03:48:39;50.92;;;23.58;;
27039;SDS011;14589;51.578;7.306;2022-12-08T03:51:04;46.30;;;22.27;;
27039;SDS011;14589;51.578;7.306;2022-12-08T03:53:30;43.13;;;21.67;;
27039;SDS011;14589;51.578;7.306;2022-12-08T03:55:55;52.78;;;24.05;;
27039;SDS011;14589;51.578;7.306;2022-12-08T03:58:21;47.50;;;23.30;;
27039;SDS011;14589;51.578;7.306;2022-12-08T04:00:47;50.25;;;24.13;;
27039;SDS011;14589;51.578;7.306;2022-12-08T04:03:13;51.05;;;23.23;;
27039;SDS011;14589;51.578;7.306;2022-12-08T04:05:38;51.70;;;23.80;;
27039;SDS011;14589;51.578;7.306;2022-12-08T04:08:04;52.78;;;23.90;;
27039;SDS011;14589;51.578;7.306;2022-12-08T04:10:29;50.60;;;23.92;;
27039;SDS011;14589;51.578;7.306;2022-12-08T04:12:57;47.28;;;22.90;;
27039;SDS011;14589;51.578;7.306;2022-12-08T04:15:22;49.95;;;24.02;;
27039;SDS011;14589;51.578;7.306;2022-12-08T04:17:48;58.00;;;24.88;;
27039;SDS011;14589;51.578;7.306;2022-12-08T04:20:13;50.20;;;24.33;;
27039;SDS011;14589;51.578;7.306;2022-12-08T04:22:42;49.88;;;24.38;;
27039;SDS011;14589;51.578;7.306;2022-12-08T04:25:13;53.10;;;24.67;;
27039;SDS011;14589;51.578;7.306;2022-12-08T04:27:55;51.83;;;23.98;;
27039;SDS011;14589;51.578;7.306;2022-12-08T04:30:32;48.75;;;23.05;;
27039;SDS011;14589;51.578;7.306;2022-12-08T04:33:09;47.55;;;22.40;;
27039;SDS011;14589;51.578;7.306;2022-12-08T04:35:38;53.40;;;22.80;;
27039;SDS011;14589;51.578;7.306;2022-12-08T04:38:06;49.00;;;21.30;;
27039;SDS011;14589;51.578;7.306;2022-12-08T04:40:32;46.20;;;21.48;;
27039;SDS011;14589;51.578;7.306;2022-12-08T04:42:59;48.58;;;21.15;;
27039;SDS011;14589;51.578;7.306;2022-12-08T04:45:25;52.08;;;23.05;;
27039;SDS011;14589;51.578;7.306;2022-12-08T04:47:51;55.58;;;24.83;;
27039;SDS011;14589;51.578;7.306;2022-12-08T04:50:16;48.08;;;22.05;;
27039;SDS011;14589;51.578;7.306;2022-12-08T04:52:42;51.50;;;22.05;;
27039;SDS011;14589;51.578;7.306;2022-12-08T04:55:10;52.03;;;23.00;;
27039;SDS011;14589;51.578;7.306;2022-12-08T04:57:36;52.60;;;22.67;;
27039;SDS011;14589;51.578;7.306;2022-12-08T05:00:04;47.70;;;22.92;;
27039;SDS011;14589;51.578;7.306;2022-12-08T05:02:30;48.75;;;23.00;;
27039;SDS011;14589;51.578;7.306;2022-12-08T05:04:58;49.70;;;23.15;;
27039;SDS011;14589;51.578;7.306;2022-12-08T05:07:26;53.08;;;23.58;;
27039;SDS011;14589;51.578;7.306;2022-12-08T05:09:52;51.63;;;22.55;;
27039;SDS011;14589;51.578;7.306;2022-12-08T05:12:18;45.70;;;21.35;;
27039;SDS011;14589;51.578;7.306;2022-12-08T05:14:43;44.67;;;20.42;;
27039;SDS011;14589;51.578;7.306;2022-12-08T05:17:14;44.78;;;20.58;;
27039;SDS011;14589;51.578;7.306;2022-12-08T05:19:40;46.92;;;22.58;;
27039;SDS011;14589;51.578;7.306;2022-12-08T05:22:09;41.50;;;18.83;;
27039;SDS011;14589;51.578;7.306;2022-12-08T05:24:35;45.20;;;19.25;;
27039;SDS011;14589;51.578;7.306;2022-12-08T05:27:00;39.65;;;19.33;;
27039;SDS011;14589;51.578;7.306;2022-12-08T05:29:28;42.03;;;19.25;;
27039;SDS011;14589;51.578;7.306;2022-12-08T05:31:54;36.70;;;17.95;;
27039;SDS011;14589;51.578;7.306;2022-12-08T05:34:21;42.67;;;19.13;;
27039;SDS011;14589;51.578;7.306;2022-12-08T05:36:47;39.50;;;18.73;;
27039;SDS011;14589;51.578;7.306;2022-12-08T05:39:19;37.38;;;16.95;;
27039;SDS011;14589;51.578;7.306;2022-12-08T05:41:48;39.25;;;17.52;;
27039;SDS011;14589;51.578;7.306;2022-12-08T05:44:18;35.95;;;16.70;;
27039;SDS011;14589;51.578;7.306;2022-12-08T05:46:43;34.65;;;17.35;;
27039;SDS011;14589;51.578;7.306;2022-12-08T05:49:11;40.80;;;18.38;;
27039;SDS011;14589;51.578;7.306;2022-12-08T05:51:37;39.58;;;18.30;;
27039;SDS011;14589;51.578;7.306;2022-12-08T05:54:02;46.85;;;19.33;;
27039;SDS011;14589;51.578;7.306;2022-12-08T05:56:29;42.60;;;19.20;;
27039;SDS011;14589;51.578;7.306;2022-12-08T05:58:54;41.97;;;20.33;;
27039;SDS011;14589;51.578;7.306;2022-12-08T06:01:24;42.13;;;19.80;;
27039;SDS011;14589;51.578;7.306;2022-12-08T06:03:54;42.97;;;18.90;;
27039;SDS011;14589;51.578;7.306;2022-12-08T06:06:19;42.53;;;18.95;;
27039;SDS011;14589;51.578;7.306;2022-12-08T06:08:45;46.25;;;20.58;;
27039;SDS011;14589;51.578;7.306;2022-12-08T06:11:21;44.00;;;20.38;;
27039;SDS011;14589;51.578;7.306;2022-12-08T06:13:50;43.85;;;21.25;;
27039;SDS011;14589;51.578;7.306;2022-12-08T06:16:18;52.13;;;22.15;;
27039;SDS011;14589;51.578;7.306;2022-12-08T06:18:44;47.08;;;22.50;;
27039;SDS011;14589;51.578;7.306;2022-12-08T06:21:13;53.72;;;24.15;;
27039;SDS011;14589;51.578;7.306;2022-12-08T06:23:39;46.10;;;21.92;;
27039;SDS011;14589;51.578;7.306;2022-12-08T06:26:08;47.42;;;21.45;;
27039;SDS011;14589;51.578;7.306;2022-12-08T06:28:41;44.67;;;20.98;;
27039;SDS011;14589;51.578;7.306;2022-12-08T06:31:08;44.38;;;21.00;;
27039;SDS011;14589;51.578;7.306;2022-12-08T06:33:47;40.38;;;19.33;;
27039;SDS011;14589;51.578;7.306;2022-12-08T06:36:14;36.50;;;18.73;;
27039;SDS011;14589;51.578;7.306;2022-12-08T06:38:41;36.00;;;18.30;;
27039;SDS011;14589;51.578;7.306;2022-12-08T06:41:06;34.78;;;17.10;;
27039;SDS011;14589;51.578;7.306;2022-12-08T06:43:32;34.17;;;16.08;;
27039;SDS011;14589;51.578;7.306;2022-12-08T06:45:58;32.83;;;14.82;;
27039;SDS011;14589;51.578;7.306;2022-12-08T06:48:24;28.27;;;14.88;;
27039;SDS011;14589;51.578;7.306;2022-12-08T06:50:50;26.85;;;12.70;;
27039;SDS011;14589;51.578;7.306;2022-12-08T06:53:16;26.70;;;13.50;;
27039;SDS011;14589;51.578;7.306;2022-12-08T06:55:45;25.27;;;11.38;;
27039;SDS011;14589;51.578;7.306;2022-12-08T06:58:11;23.80;;;12.18;;
27039;SDS011;14589;51.578;7.306;2022-12-08T07:00:38;22.50;;;11.65;;
27039;SDS011;14589;51.578;7.306;2022-12-08T07:03:07;24.30;;;11.82;;
27039;SDS011;14589;51.578;7.306;2022-12-08T07:05:37;23.15;;;11.27;;
27039;SDS011;14589;51.578;7.306;2022-12-08T07:08:03;22.02;;;10.90;;
27039;SDS011;14589;51.578;7.306;2022-12-08T07:10:29;19.63;;;10.38;;
27039;SDS011;14589;51.578;7.306;2022-12-08T07:12:55;20.17;;;10.55;;
27039;SDS011;14589;51.578;7.306;2022-12-08T07:15:20;23.23;;;11.65;;
27039;SDS011;14589;51.578;7.306;2022-12-08T07:17:47;21.75;;;10.98;;
27039;SDS011;14589;51.578;7.306;2022-12-08T07:20:13;21.05;;;10.75;;
27039;SDS011;14589;51.578;7.306;2022-12-08T07:22:39;26.33;;;12.00;;
27039;SDS011;14589;51.578;7.306;2022-12-08T07:25:04;19.80;;;10.73;;
27039;SDS011;14589;51.578;7.306;2022-12-08T07:27:30;25.42;;;11.73;;
27039;SDS011;14589;51.578;7.306;2022-12-08T07:29:56;27.17;;;11.65;;
27039;SDS011;14589;51.578;7.306;2022-12-08T07:32:21;27.52;;;11.95;;
27039;SDS011;14589;51.578;7.306;2022-12-08T07:34:47;24.27;;;12.10;;
27039;SDS011;14589;51.578;7.306;2022-12-08T07:37:15;29.00;;;13.88;;
27039;SDS011;14589;51.578;7.306;2022-12-08T07:39:41;26.02;;;12.00;;
27039;SDS011;14589;51.578;7.306;2022-12-08T07:42:07;27.67;;;13.85;;
27039;SDS011;14589;51.578;7.306;2022-12-08T07:44:36;23.48;;;12.50;;
27039;SDS011;14589;51.578;7.306;2022-12-08T07:47:01;25.10;;;11.55;;
27039;SDS011;14589;51.578;7.306;2022-12-08T07:49:29;22.88;;;11.80;;
27039;SDS011;14589;51.578;7.306;2022-12-08T07:51:54;23.58;;;11.70;;
27039;SDS011;14589;51.578;7.306;2022-12-08T07:54:20;24.33;;;10.55;;
27039;SDS011;14589;51.578;7.306;2022-12-08T07:56:45;22.42;;;11.10;;
27039;SDS011;14589;51.578;7.306;2022-12-08T07:59:11;23.95;;;9.98;;
27039;SDS011;14589;51.578;7.306;2022-12-08T08:01:36;22.17;;;9.73;;
27039;SDS011;14589;51.578;7.306;2022-12-08T08:04:02;20.98;;;10.00;;
27039;SDS011;14589;51.578;7.306;2022-12-08T08:06:29;19.42;;;10.30;;
27039;SDS011;14589;51.578;7.306;2022-12-08T08:08:55;21.00;;;10.43;;
27039;SDS011;14589;51.578;7.306;2022-12-08T08:11:21;26.15;;;11.35;;
27039;SDS011;14589;51.578;7.306;2022-12-08T08:13:48;25.30;;;11.15;;
27039;SDS011;14589;51.578;7.306;2022-12-08T08:16:14;30.75;;;13.45;;
27039;SDS011;14589;51.578;7.306;2022-12-08T08:18:40;26.20;;;12.25;;
27039;SDS011;14589;51.578;7.306;2022-12-08T08:21:06;27.23;;;12.68;;
27039;SDS011;14589;51.578;7.306;2022-12-08T08:23:32;28.48;;;13.80;;
27039;SDS011;14589;51.578;7.306;2022-12-08T08:26:01;35.38;;;16.08;;
27039;SDS011;14589;51.578;7.306;2022-12-08T08:28:28;36.97;;;15.52;;
27039;SDS011;14589;51.578;7.306;2022-12-08T08:30:54;35.78;;;15.82;;
27039;SDS011;14589;51.578;7.306;2022-12-08T08:33:20;39.35;;;16.75;;
27039;SDS011;14589;51.578;7.306;2022-12-08T08:35:48;43.60;;;17.98;;
27039;SDS011;14589;51.578;7.306;2022-12-08T08:38:16;36.10;;;18.65;;
27039;SDS011;14589;51.578;7.306;2022-12-08T08:40:41;37.90;;;17.77;;
27039;SDS011;14589;51.578;7.306;2022-12-08T08:43:07;31.77;;;16.38;;
27039;SDS011;14589;51.578;7.306;2022-12-08T08:45:35;32.88;;;16.55;;
27039;SDS011;14589;51.578;7.306;2022-12-08T08:48:01;27.63;;;15.13;;
27039;SDS011;14589;51.578;7.306;2022-12-08T08:50:26;28.50;;;15.10;;
27039;SDS011;14589;51.578;7.306;2022-12-08T08:52:57;28.20;;;14.45;;
27039;SDS011;14589;51.578;7.306;2022-12-08T08:55:25;31.38;;;15.55;;
27039;SDS011;14589;51.578;7.306;2022-12-08T08:57:50;32.40;;;16.67;;
27039;SDS011;14589;51.578;7.306;2022-12-08T09:00:16;36.75;;;16.08;;
27039;SDS011;14589;51.578;7.306;2022-12-08T09:02:45;34.15;;;17.52;;
27039;SDS011;14589;51.578;7.306;2022-12-08T09:05:22;32.30;;;16.60;;
27039;SDS011;14589;51.578;7.306;2022-12-08T09:07:57;35.80;;;16.42;;
27039;SDS011;14589;51.578;7.306;2022-12-08T09:10:23;30.88;;;15.63;;
27039;SDS011;14589;51.578;7.306;2022-12-08T09:12:51;29.38;;;14.80;;
27039;SDS011;14589;51.578;7.306;2022-12-08T09:15:17;26.15;;;13.00;;
27039;SDS011;14589;51.578;7.306;2022-12-08T09:17:44;27.27;;;13.90;;
27039;SDS011;14589;51.578;7.306;2022-12-08T09:20:10;26.25;;;13.73;;
27039;SDS011;14589;51.578;7.306;2022-12-08T09:22:37;28.23;;;14.68;;
27039;SDS011;14589;51.578;7.306;2022-12-08T09:25:02;27.20;;;13.43;;
27039;SDS011;14589;51.578;7.306;2022-12-08T09:27:31;22.42;;;12.52;;
27039;SDS011;14589;51.578;7.306;2022-12-08T09:29:56;26.30;;;13.48;;
27039;SDS011;14589;51.578;7.306;2022-12-08T09:32:24;23.13;;;12.90;;
27039;SDS011;14589;51.578;7.306;2022-12-08T09:34:50;26.00;;;13.15;;
27039;SDS011;14589;51.578;7.306;2022-12-08T09:37:15;24.25;;;13.02;;
27039;SDS011;14589;51.578;7.306;2022-12-08T09:39:46;25.67;;;12.48;;
27039;SDS011;14589;51.578;7.306;2022-12-08T09:42:14;26.60;;;13.40;;
27039;SDS011;14589;51.578;7.306;2022-12-08T09:45:03;27.23;;;13.75;;
27039;SDS011;14589;51.578;7.306;2022-12-08T09:47:42;25.75;;;13.77;;
27039;SDS011;14589;51.578;7.306;2022-12-08T09:50:17;30.05;;;14.27;;
27039;SDS011;14589;51.578;7.306;2022-12-08T09:53:08;23.30;;;13.52;;
27039;SDS011;14589;51.578;7.306;2022-12-08T09:55:46;27.00;;;13.13;;
27039;SDS011;14589;51.578;7.306;2022-12-08T09:58:24;22.25;;;12.18;;
27039;SDS011;14589;51.578;7.306;2022-12-08T10:00:55;25.13;;;13.00;;
27039;SDS011;14589;51.578;7.306;2022-12-08T10:03:22;33.42;;;13.60;;
27039;SDS011;14589;51.578;7.306;2022-12-08T10:17:21;16.67;;;9.40;;
27039;SDS011;14589;51.578;7.306;2022-12-08T10:22:42;26.52;;;14.43;;
27039;SDS011;14589;51.578;7.306;2022-12-08T10:25:10;27.23;;;15.13;;
27039;SDS011;14589;51.578;7.306;2022-12-08T10:27:42;28.50;;;14.87;;
27039;SDS011;14589;51.578;7.306;2022-12-08T10:30:11;31.73;;;16.02;;
27039;SDS011;14589;51.578;7.306;2022-12-08T10:32:41;30.45;;;15.60;;
27039;SDS011;14589;51.578;7.306;2022-12-08T10:35:10;28.70;;;15.20;;
27039;SDS011;14589;51.578;7.306;2022-12-08T10:37:37;32.40;;;16.02;;
27039;SDS011;14589;51.578;7.306;2022-12-08T10:40:16;29.73;;;15.32;;
27039;SDS011;14589;51.578;7.306;2022-12-08T10:42:48;34.25;;;17.67;;
27039;SDS011;14589;51.578;7.306;2022-12-08T10:45:28;37.03;;;18.23;;
27039;SDS011;14589;51.578;7.306;2022-12-08T10:47:56;31.02;;;16.30;;
27039;SDS011;14589;51.578;7.306;2022-12-08T10:50:29;35.85;;;16.85;;
27039;SDS011;14589;51.578;7.306;2022-12-08T10:55:43;34.10;;;18.35;;
27039;SDS011;14589;51.578;7.306;2022-12-08T10:58:29;34.90;;;18.35;;
27039;SDS011;14589;51.578;7.306;2022-12-08T11:03:48;36.65;;;18.42;;
27039;SDS011;14589;51.578;7.306;2022-12-08T11:06:19;35.60;;;18.63;;
27039;SDS011;14589;51.578;7.306;2022-12-08T11:08:50;33.85;;;17.63;;
27039;SDS011;14589;51.578;7.306;2022-12-08T11:11:38;32.53;;;17.13;;
27039;SDS011;14589;51.578;7.306;2022-12-08T11:14:29;29.70;;;16.08;;
27039;SDS011;14589;51.578;7.306;2022-12-08T11:22:45;26.83;;;14.35;;
27039;SDS011;14589;51.578;7.306;2022-12-08T11:25:26;29.52;;;15.52;;
27039;SDS011;14589;51.578;7.306;2022-12-08T11:27:58;28.05;;;14.77;;
27039;SDS011;14589;51.578;7.306;2022-12-08T11:30:27;26.42;;;15.48;;
27039;SDS011;14589;51.578;7.306;2022-12-08T11:35:41;25.27;;;13.65;;
27039;SDS011;14589;51.578;7.306;2022-12-08T11:41:09;21.20;;;11.85;;
27039;SDS011;14589;51.578;7.306;2022-12-08T11:43:39;22.58;;;11.98;;
27039;SDS011;14589;51.578;7.306;2022-12-08T11:48:46;23.00;;;12.07;;
27039;SDS011;14589;51.578;7.306;2022-12-08T11:51:24;21.50;;;12.05;;
27039;SDS011;14589;51.578;7.306;2022-12-08T11:57:12;23.40;;;13.02;;
27039;SDS011;14589;51.578;7.306;2022-12-08T11:59:40;23.15;;;13.02;;
27039;SDS011;14589;51.578;7.306;2022-12-08T12:02:19;21.00;;;12.43;;
27039;SDS011;14589;51.578;7.306;2022-12-08T12:21:10;22.17;;;12.40;;
27039;SDS011;14589;51.578;7.306;2022-12-08T12:23:41;25.00;;;13.68;;
27039;SDS011;14589;51.578;7.306;2022-12-08T12:26:08;25.13;;;13.95;;
27039;SDS011;14589;51.578;7.306;2022-12-08T12:29:00;27.85;;;14.60;;
27039;SDS011;14589;51.578;7.306;2022-12-08T12:31:39;25.05;;;13.50;;
27039;SDS011;14589;51.578;7.306;2022-12-08T12:34:25;19.30;;;12.00;;
27039;SDS011;14589;51.578;7.306;2022-12-08T12:37:06;18.42;;;11.23;;
27039;SDS011;14589;51.578;7.306;2022-12-08T12:45:18;21.75;;;12.70;;
27039;SDS011;14589;51.578;7.306;2022-12-08T13:03:41;19.92;;;11.70;;
27039;SDS011;14589;51.578;7.306;2022-12-08T13:06:09;24.77;;;14.05;;
27039;SDS011;14589;51.578;7.306;2022-12-08T13:08:38;25.83;;;14.38;;
27039;SDS011;14589;51.578;7.306;2022-12-08T13:11:07;30.20;;;15.07;;
27039;SDS011;14589;51.578;7.306;2022-12-08T13:13:57;24.45;;;14.00;;
27039;SDS011;14589;51.578;7.306;2022-12-08T13:16:25;22.85;;;12.88;;
27039;SDS011;14589;51.578;7.306;2022-12-08T13:18:55;24.33;;;12.77;;
27039;SDS011;14589;51.578;7.306;2022-12-08T13:21:22;25.45;;;14.18;;
27039;SDS011;14589;51.578;7.306;2022-12-08T13:26:50;29.38;;;15.68;;
27039;SDS011;14589;51.578;7.306;2022-12-08T13:29:38;27.60;;;14.52;;
27039;SDS011;14589;51.578;7.306;2022-12-08T13:44:42;31.40;;;16.98;;
27039;SDS011;14589;51.578;7.306;2022-12-08T13:47:16;27.80;;;15.68;;
27039;SDS011;14589;51.578;7.306;2022-12-08T13:49:54;31.40;;;17.13;;
27039;SDS011;14589;51.578;7.306;2022-12-08T13:54:58;28.15;;;15.80;;
27039;SDS011;14589;51.578;7.306;2022-12-08T13:57:27;31.00;;;16.88;;
27039;SDS011;14589;51.578;7.306;2022-12-08T13:59:58;34.67;;;18.02;;
27039;SDS011;14589;51.578;7.306;2022-12-08T14:04:53;33.95;;;18.77;;
27039;SDS011;14589;51.578;7.306;2022-12-08T14:07:23;32.80;;;18.17;;
27039;SDS011;14589;51.578;7.306;2022-12-08T14:09:51;36.97;;;20.13;;
27039;SDS011;14589;51.578;7.306;2022-12-08T14:12:22;39.78;;;19.15;;
27039;SDS011;14589;51.578;7.306;2022-12-08T14:15:13;32.50;;;18.05;;
27039;SDS011;14589;51.578;7.306;2022-12-08T14:17:38;36.80;;;18.15;;
27039;SDS011;14589;51.578;7.306;2022-12-08T14:22:38;35.38;;;18.10;;
27039;SDS011;14589;51.578;7.306;2022-12-08T14:25:05;36.78;;;18.13;;
27039;SDS011;14589;51.578;7.306;2022-12-08T14:27:34;34.50;;;18.40;;
27039;SDS011;14589;51.578;7.306;2022-12-08T14:37:37;35.67;;;16.90;;
27039;SDS011;14589;51.578;7.306;2022-12-08T14:42:44;30.83;;;15.60;;
27039;SDS011;14589;51.578;7.306;2022-12-08T14:45:12;35.30;;;14.95;;
27039;SDS011;14589;51.578;7.306;2022-12-08T14:47:40;33.33;;;16.30;;
27039;SDS011;14589;51.578;7.306;2022-12-08T14:52:59;33.60;;;14.93;;
27039;SDS011;14589;51.578;7.306;2022-12-08T14:55:27;29.25;;;14.20;;
27039;SDS011;14589;51.578;7.306;2022-12-08T14:57:57;33.88;;;14.82;;
27039;SDS011;14589;51.578;7.306;2022-12-08T15:00:23;33.80;;;14.85;;
27039;SDS011;14589;51.578;7.306;2022-12-08T15:02:48;28.60;;;13.18;;
27039;SDS011;14589;51.578;7.306;2022-12-08T15:05:15;24.45;;;13.00;;
27039;SDS011;14589;51.578;7.306;2022-12-08T15:07:53;23.90;;;13.13;;
27039;SDS011;14589;51.578;7.306;2022-12-08T15:10:28;27.63;;;12.45;;
27039;SDS011;14589;51.578;7.306;2022-12-08T15:13:00;27.42;;;12.32;;
27039;SDS011;14589;51.578;7.306;2022-12-08T15:15:46;29.48;;;13.02;;
27039;SDS011;14589;51.578;7.306;2022-12-08T15:18:29;31.35;;;15.40;;
27039;SDS011;14589;51.578;7.306;2022-12-08T15:21:00;27.23;;;14.73;;
27039;SDS011;14589;51.578;7.306;2022-12-08T15:23:29;27.80;;;14.07;;
27039;SDS011;14589;51.578;7.306;2022-12-08T15:25:56;25.60;;;13.30;;
27039;SDS011;14589;51.578;7.306;2022-12-08T15:28:24;25.95;;;14.73;;
27039;SDS011;14589;51.578;7.306;2022-12-08T15:30:50;32.42;;;14.52;;
27039;SDS011;14589;51.578;7.306;2022-12-08T15:33:16;29.80;;;13.85;;
27039;SDS011;14589;51.578;7.306;2022-12-08T15:35:42;23.42;;;12.45;;
27039;SDS011;14589;51.578;7.306;2022-12-08T15:38:18;28.98;;;13.63;;
27039;SDS011;14589;51.578;7.306;2022-12-08T15:40:47;32.97;;;15.93;;
27039;SDS011;14589;51.578;7.306;2022-12-08T15:43:13;27.25;;;14.68;;
27039;SDS011;14589;51.578;7.306;2022-12-08T15:45:38;25.42;;;13.70;;
27039;SDS011;14589;51.578;7.306;2022-12-08T15:48:04;28.02;;;14.90;;
27039;SDS011;14589;51.578;7.306;2022-12-08T15:50:29;31.73;;;15.18;;
27039;SDS011;14589;51.578;7.306;2022-12-08T15:52:55;33.53;;;15.80;;
27039;SDS011;14589;51.578;7.306;2022-12-08T15:55:20;44.17;;;17.73;;
27039;SDS011;14589;51.578;7.306;2022-12-08T15:57:47;44.30;;;20.20;;
27039;SDS011;14589;51.578;7.306;2022-12-08T16:02:54;32.30;;;17.10;;
27039;SDS011;14589;51.578;7.306;2022-12-08T16:05:20;37.58;;;18.08;;
27039;SDS011;14589;51.578;7.306;2022-12-08T16:07:46;33.67;;;17.42;;
27039;SDS011;14589;51.578;7.306;2022-12-08T16:10:15;33.15;;;15.88;;
27039;SDS011;14589;51.578;7.306;2022-12-08T16:12:45;35.17;;;15.55;;
27039;SDS011;14589;51.578;7.306;2022-12-08T16:15:29;33.75;;;16.45;;
27039;SDS011;14589;51.578;7.306;2022-12-08T16:17:56;27.88;;;14.60;;
27039;SDS011;14589;51.578;7.306;2022-12-08T16:20:22;30.20;;;15.70;;
27039;SDS011;14589;51.578;7.306;2022-12-08T16:22:48;27.92;;;14.98;;
27039;SDS011;14589;51.578;7.306;2022-12-08T16:25:13;31.92;;;17.35;;
27039;SDS011;14589;51.578;7.306;2022-12-08T16:27:39;32.78;;;16.38;;
27039;SDS011;14589;51.578;7.306;2022-12-08T16:30:06;29.85;;;15.57;;
27039;SDS011;14589;51.578;7.306;2022-12-08T16:32:32;34.60;;;17.10;;
27039;SDS011;14589;51.578;7.306;2022-12-08T16:34:58;28.88;;;15.45;;
27039;SDS011;14589;51.578;7.306;2022-12-08T16:37:24;27.20;;;14.32;;
27039;SDS011;14589;51.578;7.306;2022-12-08T16:39:51;34.70;;;17.83;;
27039;SDS011;14589;51.578;7.306;2022-12-08T16:42:18;35.63;;;18.25;;
27039;SDS011;14589;51.578;7.306;2022-12-08T16:45:12;33.75;;;18.40;;
27039;SDS011;14589;51.578;7.306;2022-12-08T16:47:45;36.65;;;17.48;;
27039;SDS011;14589;51.578;7.306;2022-12-08T16:50:13;34.22;;;17.38;;
27039;SDS011;14589;51.578;7.306;2022-12-08T16:52:40;33.00;;;17.25;;
27039;SDS011;14589;51.578;7.306;2022-12-08T16:55:07;30.02;;;16.13;;
27039;SDS011;14589;51.578;7.306;2022-12-08T16:57:36;36.03;;;18.77;;
27039;SDS011;14589;51.578;7.306;2022-12-08T17:00:03;32.55;;;17.60;;
27039;SDS011;14589;51.578;7.306;2022-12-08T17:02:31;35.20;;;17.42;;
27039;SDS011;14589;51.578;7.306;2022-12-08T17:04:56;32.28;;;17.25;;
27039;SDS011;14589;51.578;7.306;2022-12-08T17:07:22;34.45;;;16.92;;